createdAt,value
2019-06-26T00:00:01.029Z,6.30
2019-06-26T00:04:06.038Z,6.42
2019-06-26T00:08:10.794Z,6.97
2019-06-26T00:12:15.364Z,8.75
2019-06-26T00:16:20.162Z,8.83
2019-06-26T00:20:25.339Z,7.62
2019-06-26T00:24:29.991Z,6.20
2019-06-26T00:28:34.744Z,8.13
2019-06-26T00:32:39.403Z,7.12
2019-06-26T00:36:44.061Z,7.15
2019-06-26T00:40:48.837Z,12.18
2019-06-26T00:44:53.557Z,12.73
2019-06-26T00:48:58.252Z,10.30
2019-06-26T00:53:02.961Z,7.90
2019-06-26T00:57:07.850Z,6.85
2019-06-26T01:01:12.834Z,7.53
2019-06-26T01:05:18.108Z,7.85
2019-06-26T01:09:23.115Z,7.67
2019-06-26T01:13:27.834Z,8.93
2019-06-26T01:17:32.483Z,8.60
2019-06-26T01:21:37.321Z,8.53
2019-06-26T01:25:42.104Z,8.18
2019-06-26T01:29:46.758Z,8.28
2019-06-26T01:33:51.389Z,7.80
2019-06-26T01:37:56.125Z,8.48
2019-06-26T01:42:00.842Z,12.33
2019-06-26T01:46:05.580Z,10.55
2019-06-26T01:50:10.732Z,8.43
2019-06-26T01:54:15.661Z,8.63
2019-06-26T01:58:20.308Z,7.92
2019-06-26T02:02:25.334Z,9.20
2019-06-26T02:06:30.048Z,8.70
2019-06-26T02:10:34.719Z,8.38
2019-06-26T02:14:39.462Z,9.03
2019-06-26T02:18:56.518Z,8.58
2019-06-26T02:23:01.150Z,9.55
2019-06-26T02:27:05.833Z,8.83
2019-06-26T02:31:10.739Z,8.90
2019-06-26T02:35:15.849Z,10.40
2019-06-26T02:39:20.592Z,9.50
2019-06-26T02:43:25.217Z,10.20
2019-06-26T02:47:30.008Z,11.10
2019-06-26T02:51:35.011Z,9.63
2019-06-26T02:55:39.673Z,9.95
2019-06-26T02:59:44.300Z,10.20
2019-06-26T03:03:49.131Z,10.45
2019-06-26T03:07:54.058Z,10.50
2019-06-26T03:11:58.757Z,10.20
2019-06-26T03:16:03.495Z,9.98
2019-06-26T03:20:08.895Z,10.20
2019-06-26T03:24:13.566Z,10.80
2019-06-26T03:28:18.304Z,12.30
2019-06-26T03:32:23.071Z,10.40
2019-06-26T03:36:27.843Z,11.50
2019-06-26T03:40:32.508Z,10.40
2019-06-26T03:44:37.184Z,10.82
2019-06-26T03:48:41.919Z,11.80
2019-06-26T03:52:46.623Z,11.55
2019-06-26T03:56:52.144Z,11.75
2019-06-26T04:00:56.936Z,11.90
2019-06-26T04:05:01.705Z,12.58
2019-06-26T04:09:07.077Z,11.45
2019-06-26T04:13:11.745Z,11.95
2019-06-26T04:17:16.740Z,12.45
2019-06-26T04:21:21.782Z,13.15
2019-06-26T04:25:26.433Z,12.53
2019-06-26T04:29:31.111Z,12.95
2019-06-26T04:33:36.090Z,12.93
2019-06-26T04:37:41.037Z,12.20
2019-06-26T04:41:45.702Z,13.22
2019-06-26T04:45:57.993Z,13.53
2019-06-26T04:49:56.777Z,12.63
2019-06-26T04:54:01.463Z,12.80
2019-06-26T04:58:06.214Z,13.93
2019-06-26T05:02:10.896Z,14.07
2019-06-26T05:06:15.526Z,13.65
2019-06-26T05:10:20.872Z,13.90
2019-06-26T05:14:25.889Z,12.88
2019-06-26T05:18:32.470Z,13.95
2019-06-26T05:22:37.323Z,14.00
2019-06-26T05:26:41.981Z,13.75
2019-06-26T05:30:46.646Z,13.30
2019-06-26T05:34:51.425Z,14.23
2019-06-26T05:38:56.145Z,14.58
2019-06-26T05:43:00.881Z,13.18
2019-06-26T05:47:07.242Z,20.95
2019-06-26T05:51:12.186Z,13.55
2019-06-26T05:55:17.978Z,15.05
2019-06-26T05:59:22.660Z,14.55
2019-06-26T06:03:27.388Z,14.35
2019-06-26T06:07:32.046Z,15.13
2019-06-26T06:11:36.707Z,14.95
2019-06-26T06:15:41.386Z,14.28
2019-06-26T06:19:46.266Z,14.60
2019-06-26T06:23:50.965Z,13.83
2019-06-26T06:27:55.681Z,12.35
2019-06-26T06:32:00.494Z,11.83
2019-06-26T06:36:05.264Z,10.55
2019-06-26T06:40:10.443Z,11.15
2019-06-26T06:44:15.147Z,10.72
2019-06-26T06:48:20.268Z,9.75
2019-06-26T06:52:26.380Z,9.40
2019-06-26T06:56:31.027Z,8.70
2019-06-26T07:00:35.774Z,9.45
2019-06-26T07:04:40.466Z,10.03
2019-06-26T07:08:45.129Z,9.23
2019-06-26T07:12:49.803Z,9.03
2019-06-26T07:16:54.473Z,9.70
2019-06-26T07:20:59.199Z,8.98
2019-06-26T07:25:04.338Z,8.30
2019-06-26T07:29:08.978Z,13.98
2019-06-26T07:33:13.653Z,8.15
2019-06-26T07:37:18.337Z,8.60
2019-06-26T07:41:23.088Z,8.90
2019-06-26T07:45:27.753Z,8.60
2019-06-26T07:49:32.453Z,7.72
2019-06-26T07:53:37.130Z,8.53
2019-06-26T07:57:41.936Z,6.87
2019-06-26T08:01:46.610Z,6.08
2019-06-26T08:05:51.502Z,6.25
2019-06-26T08:09:56.372Z,6.50
2019-06-26T08:14:01.125Z,6.00
2019-06-26T08:18:05.881Z,5.53
2019-06-26T08:22:10.649Z,5.20
2019-06-26T08:26:15.352Z,5.55
2019-06-26T08:30:20.847Z,5.55
2019-06-26T08:34:25.579Z,5.55
2019-06-26T08:38:30.304Z,5.62
2019-06-26T08:42:34.951Z,5.20
2019-06-26T08:46:39.606Z,5.90
2019-06-26T08:50:44.707Z,6.10
2019-06-26T08:54:49.693Z,5.55
2019-06-26T08:58:54.304Z,5.20
2019-06-26T09:02:59.028Z,5.05
2019-06-26T09:07:03.780Z,5.42
2019-06-26T09:11:08.409Z,5.50
2019-06-26T09:15:13.429Z,5.03
2019-06-26T09:19:18.285Z,4.45
2019-06-26T09:23:23.052Z,4.85
2019-06-26T09:27:27.935Z,4.95
2019-06-26T09:31:32.868Z,4.05
2019-06-26T09:35:38.522Z,4.03
2019-06-26T09:39:43.202Z,4.22
2019-06-26T09:43:47.904Z,4.28
2019-06-26T09:47:52.678Z,4.30
2019-06-26T09:51:57.359Z,4.50
2019-06-26T09:56:02.105Z,4.10
2019-06-26T10:00:07.030Z,4.10
2019-06-26T10:04:12.485Z,5.05
2019-06-26T10:08:18.329Z,4.28
2019-06-26T10:12:23.077Z,4.42
2019-06-26T10:16:27.767Z,4.22
2019-06-26T10:20:32.584Z,3.80
2019-06-26T10:24:38.139Z,3.80
2019-06-26T10:28:46.564Z,4.35
2019-06-26T10:32:51.533Z,4.75
2019-06-26T10:36:56.633Z,4.47
2019-06-26T10:41:01.340Z,4.50
2019-06-26T10:45:07.060Z,4.50
2019-06-26T10:49:25.926Z,4.50
2019-06-26T10:53:18.114Z,4.45
2019-06-26T10:57:23.155Z,4.55
2019-06-26T11:01:27.885Z,4.45
2019-06-26T11:05:32.565Z,4.28
2019-06-26T11:09:37.277Z,4.80
2019-06-26T11:13:41.946Z,5.10
2019-06-26T11:17:46.719Z,4.10
2019-06-26T11:21:51.774Z,4.37
2019-06-26T11:25:56.506Z,4.42
2019-06-26T11:30:01.294Z,4.67
2019-06-26T11:34:06.059Z,4.10
2019-06-26T11:38:11.106Z,4.85
2019-06-26T11:42:16.113Z,4.50
2019-06-26T11:46:22.245Z,4.87
2019-06-26T11:50:27.211Z,4.65
2019-06-26T11:54:31.995Z,5.00
2019-06-26T11:58:36.777Z,4.85
2019-06-26T12:02:41.587Z,4.80
2019-06-26T12:06:46.575Z,4.97
2019-06-26T12:10:51.961Z,5.12
2019-06-26T12:14:56.658Z,5.28
2019-06-26T12:19:01.538Z,5.65
2019-06-26T12:23:06.427Z,5.28
2019-06-26T12:27:11.562Z,5.03
2019-06-26T12:31:16.360Z,5.30
2019-06-26T12:35:21.123Z,5.20
2019-06-26T12:39:25.917Z,4.87
2019-06-26T12:43:30.711Z,4.70
2019-06-26T12:47:35.577Z,7.90
2019-06-26T12:51:40.253Z,5.33
2019-06-26T12:55:44.923Z,4.83
2019-06-26T12:59:57.246Z,5.10
2019-06-26T13:03:55.982Z,5.33
2019-06-26T13:08:00.678Z,4.92
2019-06-26T13:12:05.706Z,5.12
2019-06-26T13:16:10.425Z,5.70
2019-06-26T13:20:15.422Z,5.80
2019-06-26T13:24:20.165Z,5.20
2019-06-26T13:28:24.904Z,5.50
2019-06-26T13:32:29.601Z,5.30
2019-06-26T13:36:34.670Z,5.22
2019-06-26T13:40:41.050Z,5.33
2019-06-26T13:44:45.727Z,5.80
2019-06-26T13:48:51.871Z,5.45
2019-06-26T13:52:57.261Z,5.92
2019-06-26T13:57:02.304Z,5.78
2019-06-26T14:01:07.502Z,6.45
2019-06-26T14:05:12.798Z,6.70
2019-06-26T14:09:17.769Z,6.00
2019-06-26T14:13:23.026Z,6.25
2019-06-26T14:17:28.301Z,6.30
2019-06-26T14:21:33.673Z,6.10
2019-06-26T14:25:38.704Z,6.47
2019-06-26T14:29:43.954Z,5.92
2019-06-26T14:33:48.969Z,6.28
2019-06-26T14:37:53.640Z,6.50
2019-06-26T14:41:58.300Z,6.83
2019-06-26T14:46:03.139Z,7.17
2019-06-26T14:50:08.770Z,6.30
2019-06-26T14:54:13.570Z,14.43
2019-06-26T14:58:18.626Z,13.90
2019-06-26T15:02:23.290Z,6.80
2019-06-26T15:06:28.060Z,8.03
2019-06-26T15:10:32.808Z,7.97
2019-06-26T15:14:41.005Z,8.23
2019-06-26T15:18:45.750Z,6.97
2019-06-26T15:22:50.545Z,6.28
2019-06-26T15:26:55.279Z,6.10
2019-06-26T15:31:00.075Z,5.75
2019-06-26T15:35:05.291Z,7.17
2019-06-26T15:39:10.131Z,5.80
2019-06-26T15:43:14.775Z,7.03
2019-06-26T15:47:19.626Z,6.92
2019-06-26T15:51:24.323Z,6.10
2019-06-26T15:55:29.140Z,5.78
2019-06-26T15:59:33.970Z,9.08
2019-06-26T16:03:38.825Z,7.78
2019-06-26T16:07:43.573Z,6.35
2019-06-26T16:11:48.342Z,5.22
2019-06-26T16:15:53.197Z,5.78
2019-06-26T16:19:57.957Z,5.83
2019-06-26T16:24:02.689Z,5.50
2019-06-26T16:28:07.783Z,5.62
2019-06-26T16:32:12.743Z,5.28
2019-06-26T16:36:17.475Z,6.12
2019-06-26T16:40:22.171Z,5.47
2019-06-26T16:44:26.993Z,5.37
2019-06-26T16:48:32.064Z,7.25
2019-06-26T16:52:48.768Z,6.87
2019-06-26T16:56:43.323Z,5.00
2019-06-26T17:00:48.111Z,5.00
2019-06-26T17:04:52.887Z,5.97
2019-06-26T17:08:57.712Z,6.47
2019-06-26T17:13:03.438Z,5.25
2019-06-26T17:17:08.185Z,11.30
2019-06-26T17:21:12.944Z,5.37
2019-06-26T17:25:17.608Z,5.35
2019-06-26T17:29:22.414Z,7.87
2019-06-26T17:33:27.169Z,5.28
2019-06-26T17:37:31.923Z,4.97
2019-06-26T17:41:36.879Z,4.65
2019-06-26T17:45:42.109Z,3.80
2019-06-26T17:49:48.656Z,3.75
2019-06-26T17:53:53.299Z,4.10
2019-06-26T17:57:58.214Z,3.30
2019-06-26T18:02:03.040Z,3.12
2019-06-26T18:06:07.900Z,3.12
2019-06-26T18:10:13.647Z,2.67
2019-06-26T18:14:18.325Z,3.10
2019-06-26T18:18:23.067Z,3.87
2019-06-26T18:22:27.755Z,3.50
2019-06-26T18:26:32.581Z,3.10
2019-06-26T18:30:37.363Z,3.25
2019-06-26T18:34:41.976Z,3.00
2019-06-26T18:38:46.718Z,3.60
2019-06-26T18:42:51.665Z,3.40
2019-06-26T18:46:56.410Z,3.12
2019-06-26T18:51:01.025Z,5.67
2019-06-26T18:55:07.512Z,3.60
2019-06-26T18:59:12.327Z,3.70
2019-06-26T19:03:17.221Z,3.80
2019-06-26T19:07:22.843Z,9.48
2019-06-26T19:11:27.582Z,5.78
2019-06-26T19:15:32.238Z,3.87
2019-06-26T19:19:36.890Z,4.95
2019-06-26T19:23:41.627Z,4.12
2019-06-26T19:27:47.334Z,4.20
2019-06-26T19:31:52.070Z,4.80
2019-06-26T19:35:56.761Z,8.68
2019-06-26T19:40:01.559Z,4.87
2019-06-26T19:44:08.805Z,4.00
2019-06-26T19:48:12.811Z,4.70
2019-06-26T19:52:17.498Z,4.65
2019-06-26T19:56:22.421Z,4.50
2019-06-26T20:00:27.186Z,4.40
2019-06-26T20:04:31.974Z,4.62
2019-06-26T20:08:51.675Z,4.55
2019-06-26T20:12:43.338Z,4.10
2019-06-26T20:16:48.142Z,4.20
2019-06-26T20:20:52.794Z,4.62
2019-06-26T20:24:57.609Z,4.17
2019-06-26T20:29:03.843Z,4.28
2019-06-26T20:33:08.662Z,3.62
2019-06-26T20:37:13.342Z,3.95
2019-06-26T20:41:18.036Z,3.95
2019-06-26T20:45:24.071Z,4.00
2019-06-26T20:49:28.876Z,3.45
2019-06-26T20:53:33.678Z,3.98
2019-06-26T20:57:38.394Z,4.78
2019-06-26T21:01:43.178Z,4.03
2019-06-26T21:05:47.890Z,4.35
2019-06-26T21:09:53.363Z,4.12
2019-06-26T21:13:58.001Z,4.45
2019-06-26T21:18:02.792Z,8.45
2019-06-26T21:22:09.025Z,3.47
2019-06-26T21:26:13.993Z,4.10
2019-06-26T21:30:19.058Z,3.85
2019-06-26T21:34:24.693Z,3.42
2019-06-26T21:38:29.377Z,3.47
2019-06-26T21:42:34.152Z,3.42
2019-06-26T21:46:38.963Z,3.30
2019-06-26T21:50:43.630Z,3.25
2019-06-26T21:54:48.288Z,3.25
2019-06-26T21:59:10.787Z,2.85
2019-06-26T22:03:34.055Z,2.75
2019-06-26T22:07:48.470Z,2.40
2019-06-26T22:12:01.527Z,2.20
2019-06-26T22:16:06.723Z,2.00
2019-06-26T22:20:12.936Z,2.85
2019-06-26T22:24:18.968Z,2.47
2019-06-26T22:28:23.660Z,2.55
2019-06-26T22:32:28.452Z,2.50
2019-06-26T22:36:34.126Z,2.00
2019-06-26T22:40:39.031Z,2.27
2019-06-26T22:44:43.846Z,2.12
2019-06-26T22:48:48.680Z,2.65
2019-06-26T22:52:53.514Z,3.33
2019-06-26T22:56:58.185Z,3.10
2019-06-26T23:01:02.899Z,2.75
2019-06-26T23:05:07.674Z,2.60
2019-06-26T23:09:12.322Z,2.67
2019-06-26T23:13:17.301Z,2.95
2019-06-26T23:17:21.944Z,2.62
2019-06-26T23:21:26.783Z,2.90
2019-06-26T23:25:31.774Z,2.80
2019-06-26T23:29:36.507Z,3.75
2019-06-26T23:33:41.195Z,2.87
2019-06-26T23:37:45.850Z,16.80
2019-06-26T23:41:50.595Z,3.70
2019-06-26T23:45:55.358Z,3.67
2019-06-26T23:50:00.048Z,3.47
2019-06-26T23:54:04.873Z,3.72
2019-06-26T23:58:09.535Z,3.45
